sensor_id;sensor_type;location;lat;lon;timestamp;P1;durP1;ratioP1;P2;durP2;ratioP2
79480;SDS011;68944;48.262;14.208;2023-04-06T00:01:27;8.60;;;3.78;;
79480;SDS011;68944;48.262;14.208;2023-04-06T00:03:52;9.15;;;3.88;;
79480;SDS011;68944;48.262;14.208;2023-04-06T00:06:18;10.27;;;3.92;;
79480;SDS011;68944;48.262;14.208;2023-04-06T00:08:43;8.85;;;3.80;;
79480;SDS011;68944;48.262;14.208;2023-04-06T00:11:09;9.55;;;3.72;;
79480;SDS011;68944;48.262;14.208;2023-04-06T00:13:35;9.35;;;3.70;;
79480;SDS011;68944;48.262;14.208;2023-04-06T00:16:01;7.93;;;3.20;;
79480;SDS011;68944;48.262;14.208;2023-04-06T00:18:26;8.25;;;3.22;;
79480;SDS011;68944;48.262;14.208;2023-04-06T00:20:52;11.07;;;4.47;;
79480;SDS011;68944;48.262;14.208;2023-04-06T00:23:17;23.02;;;10.40;;
79480;SDS011;68944;48.262;14.208;2023-04-06T00:25:43;9.55;;;4.07;;
79480;SDS011;68944;48.262;14.208;2023-04-06T00:28:09;10.90;;;3.72;;
79480;SDS011;68944;48.262;14.208;2023-04-06T00:30:34;9.63;;;3.75;;
79480;SDS011;68944;48.262;14.208;2023-04-06T00:33:00;11.88;;;3.75;;
79480;SDS011;68944;48.262;14.208;2023-04-06T00:35:26;10.50;;;3.67;;
79480;SDS011;68944;48.262;14.208;2023-04-06T00:37:51;7.70;;;3.33;;
79480;SDS011;68944;48.262;14.208;2023-04-06T00:40:17;9.57;;;3.50;;
79480;SDS011;68944;48.262;14.208;2023-04-06T00:42:44;9.45;;;3.58;;
79480;SDS011;68944;48.262;14.208;2023-04-06T00:45:09;8.85;;;4.05;;
79480;SDS011;68944;48.262;14.208;2023-04-06T00:47:35;10.55;;;4.65;;
79480;SDS011;68944;48.262;14.208;2023-04-06T00:50:01;21.02;;;8.32;;
79480;SDS011;68944;48.262;14.208;2023-04-06T00:52:27;10.60;;;4.60;;
79480;SDS011;68944;48.262;14.208;2023-04-06T00:54:53;9.60;;;4.03;;
79480;SDS011;68944;48.262;14.208;2023-04-06T00:57:20;9.93;;;3.72;;
79480;SDS011;68944;48.262;14.208;2023-04-06T00:59:52;9.73;;;4.22;;
79480;SDS011;68944;48.262;14.208;2023-04-06T01:02:18;8.02;;;3.83;;
79480;SDS011;68944;48.262;14.208;2023-04-06T01:04:47;8.88;;;3.75;;
79480;SDS011;68944;48.262;14.208;2023-04-06T01:07:25;8.25;;;3.33;;
79480;SDS011;68944;48.262;14.208;2023-04-06T01:10:26;11.45;;;3.88;;
79480;SDS011;68944;48.262;14.208;2023-04-06T01:13:09;9.65;;;3.70;;
79480;SDS011;68944;48.262;14.208;2023-04-06T01:15:46;11.88;;;3.72;;
79480;SDS011;68944;48.262;14.208;2023-04-06T01:18:16;9.57;;;3.72;;
79480;SDS011;68944;48.262;14.208;2023-04-06T01:20:51;9.43;;;4.13;;
79480;SDS011;68944;48.262;14.208;2023-04-06T01:23:17;9.23;;;3.55;;
79480;SDS011;68944;48.262;14.208;2023-04-06T01:25:45;8.73;;;3.28;;
79480;SDS011;68944;48.262;14.208;2023-04-06T01:28:11;15.70;;;6.30;;
79480;SDS011;68944;48.262;14.208;2023-04-06T01:31:12;10.48;;;4.20;;
79480;SDS011;68944;48.262;14.208;2023-04-06T01:33:44;8.85;;;3.67;;
79480;SDS011;68944;48.262;14.208;2023-04-06T01:38:41;10.05;;;3.47;;
79480;SDS011;68944;48.262;14.208;2023-04-06T01:41:07;10.32;;;4.05;;
79480;SDS011;68944;48.262;14.208;2023-04-06T01:43:45;8.57;;;3.47;;
79480;SDS011;68944;48.262;14.208;2023-04-06T01:46:11;10.65;;;4.05;;
79480;SDS011;68944;48.262;14.208;2023-04-06T01:48:40;8.45;;;3.75;;
79480;SDS011;68944;48.262;14.208;2023-04-06T01:51:16;10.20;;;4.18;;
79480;SDS011;68944;48.262;14.208;2023-04-06T01:53:54;9.02;;;3.97;;
79480;SDS011;68944;48.262;14.208;2023-04-06T01:56:25;11.82;;;3.45;;
79480;SDS011;68944;48.262;14.208;2023-04-06T01:59:04;7.43;;;3.47;;
79480;SDS011;68944;48.262;14.208;2023-04-06T02:01:36;11.15;;;3.45;;
79480;SDS011;68944;48.262;14.208;2023-04-06T02:04:02;10.90;;;3.85;;
79480;SDS011;68944;48.262;14.208;2023-04-06T02:06:27;9.30;;;3.97;;
79480;SDS011;68944;48.262;14.208;2023-04-06T02:08:53;10.20;;;3.95;;
79480;SDS011;68944;48.262;14.208;2023-04-06T02:11:19;17.30;;;7.20;;
79480;SDS011;68944;48.262;14.208;2023-04-06T02:13:48;9.30;;;4.07;;
79480;SDS011;68944;48.262;14.208;2023-04-06T02:16:15;8.48;;;3.80;;
79480;SDS011;68944;48.262;14.208;2023-04-06T02:18:42;15.88;;;4.03;;
79480;SDS011;68944;48.262;14.208;2023-04-06T02:21:07;10.80;;;4.15;;
79480;SDS011;68944;48.262;14.208;2023-04-06T02:23:33;15.25;;;4.55;;
79480;SDS011;68944;48.262;14.208;2023-04-06T02:25:58;10.35;;;4.03;;
79480;SDS011;68944;48.262;14.208;2023-04-06T02:28:24;21.98;;;9.07;;
79480;SDS011;68944;48.262;14.208;2023-04-06T02:30:50;20.83;;;7.60;;
79480;SDS011;68944;48.262;14.208;2023-04-06T02:33:16;9.93;;;3.83;;
79480;SDS011;68944;48.262;14.208;2023-04-06T02:35:44;12.82;;;5.35;;
79480;SDS011;68944;48.262;14.208;2023-04-06T02:38:11;10.57;;;4.78;;
79480;SDS011;68944;48.262;14.208;2023-04-06T02:40:36;14.63;;;5.28;;
79480;SDS011;68944;48.262;14.208;2023-04-06T02:43:13;11.68;;;5.22;;
79480;SDS011;68944;48.262;14.208;2023-04-06T02:45:40;10.23;;;4.50;;
79480;SDS011;68944;48.262;14.208;2023-04-06T02:48:06;9.10;;;4.28;;
79480;SDS011;68944;48.262;14.208;2023-04-06T02:50:32;9.40;;;4.47;;
79480;SDS011;68944;48.262;14.208;2023-04-06T02:53:01;8.40;;;4.22;;
79480;SDS011;68944;48.262;14.208;2023-04-06T02:55:27;10.57;;;4.65;;
79480;SDS011;68944;48.262;14.208;2023-04-06T02:57:53;12.50;;;4.50;;
79480;SDS011;68944;48.262;14.208;2023-04-06T03:00:23;11.35;;;4.35;;
79480;SDS011;68944;48.262;14.208;2023-04-06T03:02:49;10.93;;;4.50;;
79480;SDS011;68944;48.262;14.208;2023-04-06T03:05:16;10.43;;;4.55;;
79480;SDS011;68944;48.262;14.208;2023-04-06T03:07:44;27.10;;;10.73;;
79480;SDS011;68944;48.262;14.208;2023-04-06T03:10:45;26.17;;;11.88;;
79480;SDS011;68944;48.262;14.208;2023-04-06T03:13:10;13.38;;;6.90;;
79480;SDS011;68944;48.262;14.208;2023-04-06T03:15:56;12.77;;;5.60;;
79480;SDS011;68944;48.262;14.208;2023-04-06T03:18:22;11.07;;;4.35;;
79480;SDS011;68944;48.262;14.208;2023-04-06T03:20:50;10.73;;;4.35;;
79480;SDS011;68944;48.262;14.208;2023-04-06T03:23:18;11.00;;;4.25;;
79480;SDS011;68944;48.262;14.208;2023-04-06T03:25:46;9.90;;;4.03;;
79480;SDS011;68944;48.262;14.208;2023-04-06T03:28:15;10.38;;;4.55;;
79480;SDS011;68944;48.262;14.208;2023-04-06T03:30:49;9.95;;;4.05;;
79480;SDS011;68944;48.262;14.208;2023-04-06T03:33:20;10.43;;;4.32;;
79480;SDS011;68944;48.262;14.208;2023-04-06T03:35:52;11.55;;;4.70;;
79480;SDS011;68944;48.262;14.208;2023-04-06T03:38:18;11.93;;;4.82;;
79480;SDS011;68944;48.262;14.208;2023-04-06T03:40:44;10.80;;;4.97;;
79480;SDS011;68944;48.262;14.208;2023-04-06T03:43:10;10.15;;;4.55;;
79480;SDS011;68944;48.262;14.208;2023-04-06T03:45:36;11.95;;;4.63;;
79480;SDS011;68944;48.262;14.208;2023-04-06T03:48:04;9.60;;;4.45;;
79480;SDS011;68944;48.262;14.208;2023-04-06T03:50:32;11.35;;;4.50;;
79480;SDS011;68944;48.262;14.208;2023-04-06T03:52:58;12.20;;;4.97;;
79480;SDS011;68944;48.262;14.208;2023-04-06T03:55:24;11.05;;;4.60;;
79480;SDS011;68944;48.262;14.208;2023-04-06T03:57:49;11.85;;;4.72;;
79480;SDS011;68944;48.262;14.208;2023-04-06T04:00:16;12.30;;;4.70;;
79480;SDS011;68944;48.262;14.208;2023-04-06T04:02:42;12.65;;;4.82;;
79480;SDS011;68944;48.262;14.208;2023-04-06T04:05:08;11.23;;;5.05;;
79480;SDS011;68944;48.262;14.208;2023-04-06T04:07:35;12.15;;;6.07;;
79480;SDS011;68944;48.262;14.208;2023-04-06T04:10:01;12.95;;;4.95;;
79480;SDS011;68944;48.262;14.208;2023-04-06T04:12:28;10.98;;;4.43;;
79480;SDS011;68944;48.262;14.208;2023-04-06T04:14:55;11.50;;;4.57;;
79480;SDS011;68944;48.262;14.208;2023-04-06T04:17:21;9.80;;;4.85;;
79480;SDS011;68944;48.262;14.208;2023-04-06T04:19:47;12.00;;;5.32;;
79480;SDS011;68944;48.262;14.208;2023-04-06T04:22:13;10.90;;;4.50;;
79480;SDS011;68944;48.262;14.208;2023-04-06T04:24:40;16.48;;;4.72;;
79480;SDS011;68944;48.262;14.208;2023-04-06T04:27:06;16.48;;;5.70;;
79480;SDS011;68944;48.262;14.208;2023-04-06T04:29:32;13.95;;;4.82;;
79480;SDS011;68944;48.262;14.208;2023-04-06T04:32:02;10.50;;;5.13;;
79480;SDS011;68944;48.262;14.208;2023-04-06T04:34:29;12.30;;;5.68;;
79480;SDS011;68944;48.262;14.208;2023-04-06T04:36:55;14.73;;;5.40;;
79480;SDS011;68944;48.262;14.208;2023-04-06T04:39:31;16.45;;;7.28;;
79480;SDS011;68944;48.262;14.208;2023-04-06T04:42:02;13.07;;;5.65;;
79480;SDS011;68944;48.262;14.208;2023-04-06T04:44:30;11.88;;;5.63;;
79480;SDS011;68944;48.262;14.208;2023-04-06T04:46:55;19.30;;;6.07;;
79480;SDS011;68944;48.262;14.208;2023-04-06T04:49:29;12.20;;;5.90;;
79480;SDS011;68944;48.262;14.208;2023-04-06T04:51:55;14.85;;;6.10;;
79480;SDS011;68944;48.262;14.208;2023-04-06T04:54:27;14.38;;;6.28;;
79480;SDS011;68944;48.262;14.208;2023-04-06T04:56:53;14.15;;;5.95;;
79480;SDS011;68944;48.262;14.208;2023-04-06T04:59:31;12.65;;;5.90;;
79480;SDS011;68944;48.262;14.208;2023-04-06T05:02:03;12.52;;;5.93;;
79480;SDS011;68944;48.262;14.208;2023-04-06T05:04:39;13.80;;;5.68;;
79480;SDS011;68944;48.262;14.208;2023-04-06T05:07:07;12.93;;;5.85;;
79480;SDS011;68944;48.262;14.208;2023-04-06T05:12:02;11.43;;;5.47;;
79480;SDS011;68944;48.262;14.208;2023-04-06T05:14:32;12.40;;;5.38;;
79480;SDS011;68944;48.262;14.208;2023-04-06T05:17:00;12.52;;;5.13;;
79480;SDS011;68944;48.262;14.208;2023-04-06T05:19:26;11.52;;;5.55;;
79480;SDS011;68944;48.262;14.208;2023-04-06T05:21:52;13.30;;;5.65;;
79480;SDS011;68944;48.262;14.208;2023-04-06T05:24:18;13.70;;;5.50;;
79480;SDS011;68944;48.262;14.208;2023-04-06T05:26:45;15.43;;;5.93;;
79480;SDS011;68944;48.262;14.208;2023-04-06T05:29:18;14.00;;;6.07;;
79480;SDS011;68944;48.262;14.208;2023-04-06T05:31:45;14.18;;;6.55;;
79480;SDS011;68944;48.262;14.208;2023-04-06T05:34:11;15.65;;;6.93;;
79480;SDS011;68944;48.262;14.208;2023-04-06T05:36:38;12.73;;;6.38;;
79480;SDS011;68944;48.262;14.208;2023-04-06T05:39:14;13.23;;;5.35;;
79480;SDS011;68944;48.262;14.208;2023-04-06T05:44:10;15.52;;;6.38;;
79480;SDS011;68944;48.262;14.208;2023-04-06T05:46:37;13.20;;;6.75;;
79480;SDS011;68944;48.262;14.208;2023-04-06T05:49:04;12.15;;;6.40;;
79480;SDS011;68944;48.262;14.208;2023-04-06T05:51:32;14.10;;;6.05;;
79480;SDS011;68944;48.262;14.208;2023-04-06T05:53:58;11.27;;;5.82;;
79480;SDS011;68944;48.262;14.208;2023-04-06T05:56:25;13.73;;;6.28;;
79480;SDS011;68944;48.262;14.208;2023-04-06T05:58:51;13.90;;;6.15;;
79480;SDS011;68944;48.262;14.208;2023-04-06T06:01:23;15.07;;;6.05;;
79480;SDS011;68944;48.262;14.208;2023-04-06T06:03:48;18.88;;;6.80;;
79480;SDS011;68944;48.262;14.208;2023-04-06T06:06:15;14.45;;;6.55;;
79480;SDS011;68944;48.262;14.208;2023-04-06T06:08:54;15.80;;;5.55;;
79480;SDS011;68944;48.262;14.208;2023-04-06T06:11:20;14.55;;;5.57;;
79480;SDS011;68944;48.262;14.208;2023-04-06T06:13:47;13.75;;;6.38;;
79480;SDS011;68944;48.262;14.208;2023-04-06T06:16:13;13.60;;;5.88;;
79480;SDS011;68944;48.262;14.208;2023-04-06T06:18:43;13.45;;;5.72;;
79480;SDS011;68944;48.262;14.208;2023-04-06T06:21:09;11.20;;;5.13;;
79480;SDS011;68944;48.262;14.208;2023-04-06T06:23:37;18.83;;;6.80;;
79480;SDS011;68944;48.262;14.208;2023-04-06T06:26:03;13.60;;;5.95;;
79480;SDS011;68944;48.262;14.208;2023-04-06T06:28:30;14.73;;;5.47;;
79480;SDS011;68944;48.262;14.208;2023-04-06T06:30:55;13.85;;;6.28;;
79480;SDS011;68944;48.262;14.208;2023-04-06T06:33:23;13.45;;;6.18;;
79480;SDS011;68944;48.262;14.208;2023-04-06T06:35:51;12.32;;;6.38;;
79480;SDS011;68944;48.262;14.208;2023-04-06T06:38:17;12.30;;;5.57;;
79480;SDS011;68944;48.262;14.208;2023-04-06T06:40:44;20.80;;;6.60;;
79480;SDS011;68944;48.262;14.208;2023-04-06T06:43:11;19.98;;;7.38;;
79480;SDS011;68944;48.262;14.208;2023-04-06T06:45:51;11.70;;;5.72;;
79480;SDS011;68944;48.262;14.208;2023-04-06T06:48:16;16.25;;;5.93;;
79480;SDS011;68944;48.262;14.208;2023-04-06T06:50:42;17.73;;;6.18;;
79480;SDS011;68944;48.262;14.208;2023-04-06T06:53:07;15.82;;;6.13;;
79480;SDS011;68944;48.262;14.208;2023-04-06T06:55:33;13.18;;;5.72;;
79480;SDS011;68944;48.262;14.208;2023-04-06T06:57:59;11.70;;;5.47;;
79480;SDS011;68944;48.262;14.208;2023-04-06T07:00:24;13.30;;;5.25;;
79480;SDS011;68944;48.262;14.208;2023-04-06T07:02:51;10.30;;;5.25;;
79480;SDS011;68944;48.262;14.208;2023-04-06T07:05:17;11.32;;;5.13;;
79480;SDS011;68944;48.262;14.208;2023-04-06T07:07:42;10.73;;;5.18;;
79480;SDS011;68944;48.262;14.208;2023-04-06T07:10:08;13.07;;;5.50;;
79480;SDS011;68944;48.262;14.208;2023-04-06T07:12:37;11.75;;;5.65;;
79480;SDS011;68944;48.262;14.208;2023-04-06T07:15:02;14.23;;;6.20;;
79480;SDS011;68944;48.262;14.208;2023-04-06T07:17:28;12.80;;;5.35;;
79480;SDS011;68944;48.262;14.208;2023-04-06T07:19:54;11.73;;;5.03;;
79480;SDS011;68944;48.262;14.208;2023-04-06T07:22:19;10.93;;;5.35;;
79480;SDS011;68944;48.262;14.208;2023-04-06T07:24:45;14.77;;;6.13;;
79480;SDS011;68944;48.262;14.208;2023-04-06T07:27:10;10.50;;;5.28;;
79480;SDS011;68944;48.262;14.208;2023-04-06T07:29:36;13.80;;;6.05;;
79480;SDS011;68944;48.262;14.208;2023-04-06T07:32:01;11.20;;;5.57;;
79480;SDS011;68944;48.262;14.208;2023-04-06T07:34:28;12.48;;;5.50;;
79480;SDS011;68944;48.262;14.208;2023-04-06T07:36:53;13.57;;;5.38;;
79480;SDS011;68944;48.262;14.208;2023-04-06T07:39:19;13.00;;;5.80;;
79480;SDS011;68944;48.262;14.208;2023-04-06T07:41:46;11.73;;;5.15;;
79480;SDS011;68944;48.262;14.208;2023-04-06T07:44:11;11.55;;;5.13;;
79480;SDS011;68944;48.262;14.208;2023-04-06T07:46:37;13.55;;;5.35;;
79480;SDS011;68944;48.262;14.208;2023-04-06T07:49:03;11.80;;;5.75;;
79480;SDS011;68944;48.262;14.208;2023-04-06T07:51:31;13.80;;;5.32;;
79480;SDS011;68944;48.262;14.208;2023-04-06T07:53:57;11.60;;;6.28;;
79480;SDS011;68944;48.262;14.208;2023-04-06T07:56:23;14.52;;;6.50;;
79480;SDS011;68944;48.262;14.208;2023-04-06T07:58:48;13.73;;;6.57;;
79480;SDS011;68944;48.262;14.208;2023-04-06T08:01:14;15.48;;;6.43;;
79480;SDS011;68944;48.262;14.208;2023-04-06T08:03:39;10.98;;;5.60;;
79480;SDS011;68944;48.262;14.208;2023-04-06T08:06:05;13.55;;;6.88;;
79480;SDS011;68944;48.262;14.208;2023-04-06T08:08:31;30.23;;;8.93;;
79480;SDS011;68944;48.262;14.208;2023-04-06T08:10:56;14.27;;;7.00;;
79480;SDS011;68944;48.262;14.208;2023-04-06T08:13:22;15.25;;;7.50;;
79480;SDS011;68944;48.262;14.208;2023-04-06T08:15:48;12.98;;;7.22;;
79480;SDS011;68944;48.262;14.208;2023-04-06T08:18:13;18.10;;;6.38;;
79480;SDS011;68944;48.262;14.208;2023-04-06T08:20:39;12.23;;;6.22;;
79480;SDS011;68944;48.262;14.208;2023-04-06T08:23:05;12.90;;;5.95;;
79480;SDS011;68944;48.262;14.208;2023-04-06T08:25:33;15.38;;;5.95;;
79480;SDS011;68944;48.262;14.208;2023-04-06T08:27:59;11.70;;;5.90;;
79480;SDS011;68944;48.262;14.208;2023-04-06T08:30:25;15.30;;;6.00;;
79480;SDS011;68944;48.262;14.208;2023-04-06T08:32:50;13.43;;;6.07;;
79480;SDS011;68944;48.262;14.208;2023-04-06T08:35:16;11.30;;;5.45;;
79480;SDS011;68944;48.262;14.208;2023-04-06T08:37:42;14.68;;;6.13;;
79480;SDS011;68944;48.262;14.208;2023-04-06T08:40:07;14.18;;;6.05;;
79480;SDS011;68944;48.262;14.208;2023-04-06T08:42:33;11.80;;;5.85;;
79480;SDS011;68944;48.262;14.208;2023-04-06T08:45:05;11.52;;;5.55;;
79480;SDS011;68944;48.262;14.208;2023-04-06T08:47:31;13.40;;;6.30;;
79480;SDS011;68944;48.262;14.208;2023-04-06T08:49:57;14.40;;;6.45;;
79480;SDS011;68944;48.262;14.208;2023-04-06T08:52:25;13.13;;;6.63;;
79480;SDS011;68944;48.262;14.208;2023-04-06T08:54:52;13.55;;;6.82;;
79480;SDS011;68944;48.262;14.208;2023-04-06T08:57:17;10.68;;;5.28;;
79480;SDS011;68944;48.262;14.208;2023-04-06T08:59:45;13.70;;;5.43;;
79480;SDS011;68944;48.262;14.208;2023-04-06T09:02:12;11.10;;;5.15;;
79480;SDS011;68944;48.262;14.208;2023-04-06T09:04:42;13.07;;;5.80;;
79480;SDS011;68944;48.262;14.208;2023-04-06T09:07:09;11.10;;;5.15;;
79480;SDS011;68944;48.262;14.208;2023-04-06T09:09:35;10.50;;;4.75;;
79480;SDS011;68944;48.262;14.208;2023-04-06T09:12:01;11.23;;;4.47;;
79480;SDS011;68944;48.262;14.208;2023-04-06T09:14:34;9.40;;;4.80;;
79480;SDS011;68944;48.262;14.208;2023-04-06T09:17:05;9.73;;;4.80;;
79480;SDS011;68944;48.262;14.208;2023-04-06T09:19:31;12.10;;;4.53;;
79480;SDS011;68944;48.262;14.208;2023-04-06T09:22:03;11.70;;;4.93;;
79480;SDS011;68944;48.262;14.208;2023-04-06T09:24:46;11.55;;;5.57;;
79480;SDS011;68944;48.262;14.208;2023-04-06T09:27:13;13.05;;;5.10;;
79480;SDS011;68944;48.262;14.208;2023-04-06T09:29:40;10.15;;;4.13;;
79480;SDS011;68944;48.262;14.208;2023-04-06T09:32:06;9.52;;;3.60;;
79480;SDS011;68944;48.262;14.208;2023-04-06T09:34:36;8.80;;;3.55;;
79480;SDS011;68944;48.262;14.208;2023-04-06T09:37:15;8.90;;;4.00;;
79480;SDS011;68944;48.262;14.208;2023-04-06T09:39:43;11.75;;;4.88;;
79480;SDS011;68944;48.262;14.208;2023-04-06T09:42:09;10.57;;;4.40;;
79480;SDS011;68944;48.262;14.208;2023-04-06T09:44:35;10.20;;;4.55;;
79480;SDS011;68944;48.262;14.208;2023-04-06T09:47:00;10.35;;;4.70;;
79480;SDS011;68944;48.262;14.208;2023-04-06T09:49:30;11.13;;;4.90;;
79480;SDS011;68944;48.262;14.208;2023-04-06T09:51:59;15.48;;;4.10;;
79480;SDS011;68944;48.262;14.208;2023-04-06T09:54:28;10.70;;;3.97;;
79480;SDS011;68944;48.262;14.208;2023-04-06T09:59:45;9.20;;;4.00;;
79480;SDS011;68944;48.262;14.208;2023-04-06T10:02:18;11.55;;;4.28;;
79480;SDS011;68944;48.262;14.208;2023-04-06T10:05:12;10.57;;;4.40;;
79480;SDS011;68944;48.262;14.208;2023-04-06T10:07:44;10.20;;;3.63;;
79480;SDS011;68944;48.262;14.208;2023-04-06T10:10:11;8.60;;;3.75;;
79480;SDS011;68944;48.262;14.208;2023-04-06T10:12:40;9.70;;;3.75;;
79480;SDS011;68944;48.262;14.208;2023-04-06T10:15:07;7.55;;;3.60;;
79480;SDS011;68944;48.262;14.208;2023-04-06T10:17:33;11.65;;;4.50;;
79480;SDS011;68944;48.262;14.208;2023-04-06T10:20:00;11.10;;;3.70;;
79480;SDS011;68944;48.262;14.208;2023-04-06T10:22:45;9.02;;;4.32;;
79480;SDS011;68944;48.262;14.208;2023-04-06T10:25:28;10.32;;;3.83;;
79480;SDS011;68944;48.262;14.208;2023-04-06T10:27:58;9.90;;;4.07;;
79480;SDS011;68944;48.262;14.208;2023-04-06T10:30:30;9.38;;;4.07;;
79480;SDS011;68944;48.262;14.208;2023-04-06T10:32:56;9.68;;;4.00;;
79480;SDS011;68944;48.262;14.208;2023-04-06T10:35:21;8.20;;;3.40;;
79480;SDS011;68944;48.262;14.208;2023-04-06T10:40:18;10.02;;;4.03;;
79480;SDS011;68944;48.262;14.208;2023-04-06T10:42:48;9.80;;;3.83;;
79480;SDS011;68944;48.262;14.208;2023-04-06T10:45:24;9.93;;;3.53;;
79480;SDS011;68944;48.262;14.208;2023-04-06T10:47:54;8.77;;;3.42;;
79480;SDS011;68944;48.262;14.208;2023-04-06T10:52:46;8.65;;;3.28;;
79480;SDS011;68944;48.262;14.208;2023-04-06T10:55:12;10.32;;;3.90;;
79480;SDS011;68944;48.262;14.208;2023-04-06T10:57:40;7.53;;;3.42;;
79480;SDS011;68944;48.262;14.208;2023-04-06T11:00:06;8.15;;;3.03;;
79480;SDS011;68944;48.262;14.208;2023-04-06T11:02:34;8.98;;;3.15;;
79480;SDS011;68944;48.262;14.208;2023-04-06T11:05:00;8.20;;;3.90;;
79480;SDS011;68944;48.262;14.208;2023-04-06T11:07:26;8.13;;;3.60;;
79480;SDS011;68944;48.262;14.208;2023-04-06T11:09:54;8.52;;;3.38;;
79480;SDS011;68944;48.262;14.208;2023-04-06T11:14:56;9.93;;;3.72;;
79480;SDS011;68944;48.262;14.208;2023-04-06T11:17:35;8.93;;;3.85;;
79480;SDS011;68944;48.262;14.208;2023-04-06T11:20:02;7.90;;;3.78;;
79480;SDS011;68944;48.262;14.208;2023-04-06T11:22:30;7.43;;;3.38;;
79480;SDS011;68944;48.262;14.208;2023-04-06T11:25:05;7.97;;;3.25;;
79480;SDS011;68944;48.262;14.208;2023-04-06T11:27:32;8.68;;;4.00;;
79480;SDS011;68944;48.262;14.208;2023-04-06T11:30:02;8.70;;;3.72;;
79480;SDS011;68944;48.262;14.208;2023-04-06T11:32:28;8.65;;;3.92;;
79480;SDS011;68944;48.262;14.208;2023-04-06T11:34:53;8.88;;;4.10;;
79480;SDS011;68944;48.262;14.208;2023-04-06T11:37:19;8.32;;;3.65;;
79480;SDS011;68944;48.262;14.208;2023-04-06T11:39:49;20.30;;;4.82;;
79480;SDS011;68944;48.262;14.208;2023-04-06T11:42:25;11.32;;;4.05;;
79480;SDS011;68944;48.262;14.208;2023-04-06T11:44:56;9.18;;;3.47;;
79480;SDS011;68944;48.262;14.208;2023-04-06T11:47:29;7.85;;;3.40;;
79480;SDS011;68944;48.262;14.208;2023-04-06T11:50:04;7.75;;;3.40;;
79480;SDS011;68944;48.262;14.208;2023-04-06T11:54:56;8.77;;;3.53;;
79480;SDS011;68944;48.262;14.208;2023-04-06T11:57:22;8.40;;;3.60;;
79480;SDS011;68944;48.262;14.208;2023-04-06T11:59:50;13.38;;;4.20;;
79480;SDS011;68944;48.262;14.208;2023-04-06T12:02:16;11.25;;;3.88;;
79480;SDS011;68944;48.262;14.208;2023-04-06T12:04:42;9.18;;;4.43;;
79480;SDS011;68944;48.262;14.208;2023-04-06T12:07:08;8.02;;;3.88;;
79480;SDS011;68944;48.262;14.208;2023-04-06T12:09:34;8.93;;;3.92;;
79480;SDS011;68944;48.262;14.208;2023-04-06T12:12:01;8.68;;;4.30;;
79480;SDS011;68944;48.262;14.208;2023-04-06T12:14:27;7.90;;;3.80;;
79480;SDS011;68944;48.262;14.208;2023-04-06T12:16:53;9.60;;;3.85;;
79480;SDS011;68944;48.262;14.208;2023-04-06T12:19:18;7.70;;;3.45;;
79480;SDS011;68944;48.262;14.208;2023-04-06T12:21:44;10.15;;;3.72;;
79480;SDS011;68944;48.262;14.208;2023-04-06T12:24:10;11.20;;;3.75;;
79480;SDS011;68944;48.262;14.208;2023-04-06T12:26:35;8.63;;;3.45;;
79480;SDS011;68944;48.262;14.208;2023-04-06T12:29:02;11.63;;;3.78;;
79480;SDS011;68944;48.262;14.208;2023-04-06T12:31:32;10.52;;;4.40;;
79480;SDS011;68944;48.262;14.208;2023-04-06T12:34:00;10.23;;;3.55;;
79480;SDS011;68944;48.262;14.208;2023-04-06T12:36:27;11.38;;;4.20;;
79480;SDS011;68944;48.262;14.208;2023-04-06T12:38:53;8.13;;;3.75;;
79480;SDS011;68944;48.262;14.208;2023-04-06T12:41:19;11.93;;;3.95;;
79480;SDS011;68944;48.262;14.208;2023-04-06T12:43:45;11.52;;;3.92;;
79480;SDS011;68944;48.262;14.208;2023-04-06T12:46:11;9.73;;;3.88;;
79480;SDS011;68944;48.262;14.208;2023-04-06T12:48:37;8.75;;;4.00;;
79480;SDS011;68944;48.262;14.208;2023-04-06T12:51:04;10.57;;;4.07;;
79480;SDS011;68944;48.262;14.208;2023-04-06T12:53:31;8.60;;;3.92;;
79480;SDS011;68944;48.262;14.208;2023-04-06T12:55:57;8.63;;;3.75;;
79480;SDS011;68944;48.262;14.208;2023-04-06T12:58:23;7.65;;;3.47;;
79480;SDS011;68944;48.262;14.208;2023-04-06T13:00:51;10.38;;;4.03;;
79480;SDS011;68944;48.262;14.208;2023-04-06T13:03:20;12.35;;;3.90;;
79480;SDS011;68944;48.262;14.208;2023-04-06T13:05:48;9.48;;;3.92;;
79480;SDS011;68944;48.262;14.208;2023-04-06T13:08:14;8.52;;;3.40;;
79480;SDS011;68944;48.262;14.208;2023-04-06T13:10:46;8.55;;;3.63;;
79480;SDS011;68944;48.262;14.208;2023-04-06T13:13:16;10.15;;;3.90;;
79480;SDS011;68944;48.262;14.208;2023-04-06T13:15:42;10.20;;;3.63;;
79480;SDS011;68944;48.262;14.208;2023-04-06T13:18:10;8.02;;;4.00;;
79480;SDS011;68944;48.262;14.208;2023-04-06T13:20:36;8.00;;;3.70;;
79480;SDS011;68944;48.262;14.208;2023-04-06T13:23:02;7.82;;;3.30;;
79480;SDS011;68944;48.262;14.208;2023-04-06T13:25:27;8.00;;;3.35;;
79480;SDS011;68944;48.262;14.208;2023-04-06T13:27:55;9.50;;;3.22;;
79480;SDS011;68944;48.262;14.208;2023-04-06T13:30:21;7.63;;;3.75;;
79480;SDS011;68944;48.262;14.208;2023-04-06T13:32:47;8.02;;;3.40;;
79480;SDS011;68944;48.262;14.208;2023-04-06T13:35:13;7.93;;;3.28;;
79480;SDS011;68944;48.262;14.208;2023-04-06T13:37:39;8.07;;;3.63;;
79480;SDS011;68944;48.262;14.208;2023-04-06T13:40:05;9.52;;;3.50;;
79480;SDS011;68944;48.262;14.208;2023-04-06T13:42:31;11.68;;;3.70;;
79480;SDS011;68944;48.262;14.208;2023-04-06T13:44:57;8.52;;;3.42;;
79480;SDS011;68944;48.262;14.208;2023-04-06T13:47:23;9.18;;;3.42;;
79480;SDS011;68944;48.262;14.208;2023-04-06T13:49:51;7.18;;;3.13;;
79480;SDS011;68944;48.262;14.208;2023-04-06T13:52:21;7.38;;;3.00;;
79480;SDS011;68944;48.262;14.208;2023-04-06T13:54:47;7.90;;;3.08;;
79480;SDS011;68944;48.262;14.208;2023-04-06T13:57:14;7.85;;;3.30;;
79480;SDS011;68944;48.262;14.208;2023-04-06T13:59:40;7.65;;;3.90;;
79480;SDS011;68944;48.262;14.208;2023-04-06T14:02:07;7.47;;;3.40;;
79480;SDS011;68944;48.262;14.208;2023-04-06T14:04:34;8.80;;;4.00;;
79480;SDS011;68944;48.262;14.208;2023-04-06T14:07:00;9.75;;;3.22;;
79480;SDS011;68944;48.262;14.208;2023-04-06T14:09:30;7.28;;;3.08;;
79480;SDS011;68944;48.262;14.208;2023-04-06T14:11:55;7.45;;;3.10;;
79480;SDS011;68944;48.262;14.208;2023-04-06T14:14:22;7.57;;;3.50;;
79480;SDS011;68944;48.262;14.208;2023-04-06T14:16:48;6.75;;;3.08;;
79480;SDS011;68944;48.262;14.208;2023-04-06T14:19:14;8.35;;;3.38;;
79480;SDS011;68944;48.262;14.208;2023-04-06T14:21:43;7.53;;;3.40;;
79480;SDS011;68944;48.262;14.208;2023-04-06T14:24:09;7.45;;;3.63;;
79480;SDS011;68944;48.262;14.208;2023-04-06T14:26:35;8.10;;;3.30;;
79480;SDS011;68944;48.262;14.208;2023-04-06T14:29:02;8.23;;;3.95;;
79480;SDS011;68944;48.262;14.208;2023-04-06T14:31:29;8.45;;;3.72;;
79480;SDS011;68944;48.262;14.208;2023-04-06T14:33:55;9.85;;;4.80;;
79480;SDS011;68944;48.262;14.208;2023-04-06T14:36:21;7.85;;;4.13;;
79480;SDS011;68944;48.262;14.208;2023-04-06T14:38:47;8.15;;;4.25;;
79480;SDS011;68944;48.262;14.208;2023-04-06T14:41:16;7.38;;;3.50;;
79480;SDS011;68944;48.262;14.208;2023-04-06T14:43:43;9.18;;;3.03;;
79480;SDS011;68944;48.262;14.208;2023-04-06T14:46:09;9.10;;;4.80;;
79480;SDS011;68944;48.262;14.208;2023-04-06T14:48:35;6.47;;;3.40;;
79480;SDS011;68944;48.262;14.208;2023-04-06T14:51:01;13.10;;;5.50;;